YFA weather

Fort Albany Airport
Fort Albany, Ontario, Canada

Public forecast

Using degrees Celsius for public forecast. Weather courtesy of forecast.io.

METAR (pilot weather report)

Closest report is Attawapiskat Airport, 51.2 nm (94.8 km) NNW. Retrieved 2019/05/20 16:00 UTC (37 minutes ago):

CYAT 201600Z AUTO 33012G18KT 310V020 9SM CLR 08/02 A2996 RMK SLP146

TAF (pilot weather forecast)

Closest forecast is Attawapiskat Airport, 51.2 nm (94.8 km) NNW. Retrieved 2019/05/20 15:00 UTC (2 hours ago):

TAF CYAT 201443Z 2015/2019 34010G20KT P6SM FEW010 RMK FCST BASED ON AUTO OBS. NXT FCST WILL BE ISSUED AT 210845Z